Wetterdaten: Woche 24.04.06 - 30.04.06 (KW17)
Datum Zeit Temperatur Luftfeuchte Niederschlag Windrichtung Wind
24.04.2006 00:00 8,6 C 69 % 0,0 l/m N 0,0 km/h (0 Bft)
24.04.2006 01:00 8,2 C 70 % 0,0 l/m NW 1,9 km/h (1 Bft)
24.04.2006 02:00 7,6 C 68 % 0,0 l/m NW 2,3 km/h (1 Bft)
24.04.2006 03:00 6,6 C 71 % 0,0 l/m N 0,0 km/h (0 Bft)
24.04.2006 04:00 5,4 C 75 % 0,0 l/m N 0,0 km/h (0 Bft)
24.04.2006 05:00 4,6 C 80 % 0,0 l/m N 0,0 km/h (0 Bft)
24.04.2006 06:00 4,1 C 82 % 0,0 l/m N 0,0 km/h (0 Bft)
24.04.2006 07:00 4,8 C 86 % 0,0 l/m N-NW 0,3 km/h (0 Bft)
24.04.2006 08:00 8,4 C 69 % 0,0 l/m N-NO 1,6 km/h (1 Bft)
24.04.2006 09:00 12,2 C 54 % 0,0 l/m O 3,8 km/h (1 Bft)
24.04.2006 10:00 15,8 C 48 % 0,0 l/m N-NO 6,2 km/h (2 Bft)
24.04.2006 11:00 18,3 C 43 % 0,0 l/m O-NO 8,6 km/h (2 Bft)
24.04.2006 12:00 19,4 C 38 % 0,0 l/m O 10,5 km/h (2 Bft)
24.04.2006 13:00 20,3 C 35 % 0,0 l/m O 13,4 km/h (3 Bft)
24.04.2006 14:00 21,4 C 34 % 0,0 l/m N-NO 11,8 km/h (2 Bft)
24.04.2006 15:00 22,0 C 33 % 0,0 l/m N 10,3 km/h (2 Bft)
24.04.2006 16:00 22,1 C 32 % 0,0 l/m O 8,3 km/h (2 Bft)
24.04.2006 17:00 21,7 C 32 % 0,0 l/m N 9,6 km/h (2 Bft)
24.04.2006 18:00 21,6 C 33 % 0,0 l/m NO 11,7 km/h (2 Bft)
24.04.2006 19:00 20,0 C 35 % 0,0 l/m N-NO 11,3 km/h (2 Bft)
24.04.2006 20:00 17,8 C 42 % 0,0 l/m O-NO 8,0 km/h (2 Bft)
24.04.2006 21:00 15,4 C 50 % 0,0 l/m N 0,0 km/h (0 Bft)
24.04.2006 22:00 13,5 C 58 % 0,0 l/m N-NO 0,4 km/h (0 Bft)
24.04.2006 23:00 12,4 C 62 % 0,0 l/m N-NO 1,3 km/h (1 Bft)
25.04.2006 00:00 11,7 C 66 % 0,0 l/m N 0,0 km/h (0 Bft)
25.04.2006 01:00 11,2 C 70 % 0,0 l/m W 5,8 km/h (2 Bft)
25.04.2006 02:00 10,8 C 73 % 0,0 l/m N 0,1 km/h (0 Bft)
25.04.2006 03:00 10,1 C 77 % 0,0 l/m S-SW 0,7 km/h (0 Bft)
25.04.2006 04:00 10,1 C 78 % 0,0 l/m SW 0,6 km/h (0 Bft)
25.04.2006 05:00 10,4 C 81 % 0,0 l/m N 0,0 km/h (0 Bft)
25.04.2006 06:00 10,3 C 85 % 0,0 l/m N 0,0 km/h (0 Bft)
25.04.2006 07:00 10,8 C 89 % 0,0 l/m N 0,0 km/h (0 Bft)
25.04.2006 08:00 12,0 C 88 % 0,0 l/m N 0,0 km/h (0 Bft)
25.04.2006 09:00 13,9 C 79 % 0,0 l/m W 0,1 km/h (0 Bft)
25.04.2006 10:00 16,1 C 58 % 0,0 l/m W 7,5 km/h (2 Bft)
25.04.2006 11:00 17,4 C 53 % 0,0 l/m W 7,0 km/h (2 Bft)
25.04.2006 12:00 19,5 C 44 % 0,0 l/m S-SW 9,8 km/h (2 Bft)
25.04.2006 13:00 19,9 C 42 % 0,0 l/m S-SW 10,1 km/h (2 Bft)
25.04.2006 14:00 19,2 C 45 % 0,0 l/m S 8,7 km/h (2 Bft)
25.04.2006 15:00 19,9 C 42 % 0,0 l/m S-SW 12,2 km/h (2 Bft)
25.04.2006 16:00 20,5 C 38 % 0,0 l/m SW 14,0 km/h (3 Bft)
25.04.2006 17:00 20,3 C 37 % 0,0 l/m W 10,3 km/h (2 Bft)
25.04.2006 18:00 18,9 C 43 % 0,0 l/m N 11,1 km/h (2 Bft)
25.04.2006 19:00 17,2 C 52 % 0,0 l/m N-NO 6,1 km/h (2 Bft)
25.04.2006 20:00 16,1 C 59 % 0,0 l/m N 0,0 km/h (0 Bft)
25.04.2006 21:00 14,9 C 66 % 0,0 l/m NW 1,3 km/h (1 Bft)
25.04.2006 22:00 14,2 C 69 % 0,0 l/m W 0,4 km/h (0 Bft)
25.04.2006 23:00 13,2 C 71 % 0,0 l/m N 0,0 km/h (0 Bft)
26.04.2006 00:00 12,5 C 75 % 0,0 l/m W 1,7 km/h (1 Bft)
26.04.2006 01:00 12,5 C 76 % 0,0 l/m N 0,0 km/h (0 Bft)
26.04.2006 02:00 12,2 C 79 % 0,0 l/m W 2,3 km/h (1 Bft)
26.04.2006 03:00 12,3 C 78 % 0,0 l/m S-SO 3,1 km/h (1 Bft)
26.04.2006 04:00 12,1 C 84 % 0,0 l/m NW 8,1 km/h (2 Bft)
26.04.2006 05:00 11,5 C 87 % 0,0 l/m S 1,6 km/h (1 Bft)
26.04.2006 06:00 11,2 C 90 % 0,0 l/m N 0,0 km/h (0 Bft)
26.04.2006 07:00 11,3 C 93 % 0,0 l/m N 0,0 km/h (0 Bft)
26.04.2006 08:00 12,3 C 92 % 0,0 l/m S 4,4 km/h (1 Bft)
26.04.2006 09:00 14,1 C 78 % 0,0 l/m S-SW 12,8 km/h (3 Bft)
26.04.2006 10:00 15,8 C 63 % 0,0 l/m S-SW 14,9 km/h (3 Bft)
26.04.2006 11:00 14,8 C 64 % 0,0 l/m W 18,3 km/h (3 Bft)
26.04.2006 12:00 15,2 C 57 % 0,0 l/m W 15,5 km/h (3 Bft)
26.04.2006 13:00 16,2 C 53 % 0,0 l/m W 13,9 km/h (3 Bft)
26.04.2006 14:00 16,5 C 53 % 0,0 l/m S 11,7 km/h (2 Bft)
26.04.2006 15:00 16,0 C 55 % 0,0 l/m W 12,2 km/h (2 Bft)
26.04.2006 16:00 14,3 C 70 % 1,0 l/m W-SW 16,4 km/h (3 Bft)
26.04.2006 17:00 11,6 C 91 % 0,0 l/m W 10,3 km/h (2 Bft)
26.04.2006 18:00 11,9 C 94 % 0,0 l/m W-SW 1,3 km/h (1 Bft)
26.04.2006 19:00 12,0 C 94 % 0,0 l/m W-SW 3,7 km/h (1 Bft)
26.04.2006 20:00 11,3 C 92 % 0,0 l/m W-SW 8,2 km/h (2 Bft)
26.04.2006 21:00 10,8 C 92 % 0,0 l/m S 3,3 km/h (1 Bft)
26.04.2006 22:00 10,7 C 94 % 0,0 l/m S 2,7 km/h (1 Bft)
26.04.2006 23:00 10,7 C 96 % 0,0 l/m S-SO 1,7 km/h (1 Bft)
27.04.2006 00:00 10,5 C 98 % 0,0 l/m S-SW 3,8 km/h (1 Bft)
27.04.2006 01:00 10,2 C 99 % 0,0 l/m S-SO 5,2 km/h (1 Bft)
27.04.2006 02:00 10,2 C 99 % 0,0 l/m S-SW 1,0 km/h (0 Bft)
27.04.2006 03:00 10,1 C 100 % 0,0 l/m N 0,0 km/h (0 Bft)
27.04.2006 04:00 10,1 C 100 % 0,0 l/m N 0,1 km/h (0 Bft)
27.04.2006 05:00 10,1 C 100 % 0,0 l/m S-SW 0,4 km/h (0 Bft)
27.04.2006 06:00 10,1 C 100 % 0,0 l/m S-SW 0,5 km/h (0 Bft)
27.04.2006 07:00 10,2 C 100 % 0,0 l/m S 0,9 km/h (0 Bft)
27.04.2006 08:00 11,0 C 100 % 0,0 l/m S-SW 2,3 km/h (1 Bft)
27.04.2006 09:00 12,2 C 92 % 0,0 l/m W-NW 3,8 km/h (1 Bft)
27.04.2006 10:00 12,6 C 80 % 0,0 l/m W 5,4 km/h (1 Bft)
27.04.2006 11:00 12,7 C 82 % 1,0 l/m NW 6,7 km/h (2 Bft)
27.04.2006 12:00 12,4 C 86 % 0,0 l/m W-NW 5,2 km/h (1 Bft)
27.04.2006 13:00 13,1 C 81 % 0,0 l/m W 7,0 km/h (2 Bft)
27.04.2006 14:00 13,0 C 82 % 0,0 l/m W 11,3 km/h (2 Bft)
27.04.2006 15:00 13,7 C 76 % 0,0 l/m N-NW 10,5 km/h (2 Bft)
27.04.2006 16:00 14,1 C 73 % 0,0 l/m NW 12,2 km/h (2 Bft)
27.04.2006 17:00 13,7 C 74 % 0,0 l/m N-NW 12,8 km/h (3 Bft)
27.04.2006 18:00 13,6 C 74 % 0,0 l/m N 15,1 km/h (3 Bft)
27.04.2006 19:00 12,9 C 77 % 0,0 l/m N-NW 10,6 km/h (2 Bft)
27.04.2006 20:00 12,4 C 82 % 0,0 l/m NW 7,3 km/h (2 Bft)
27.04.2006 21:00 12,0 C 84 % 0,0 l/m NW 4,7 km/h (1 Bft)
27.04.2006 22:00 11,8 C 86 % 0,0 l/m NW 9,1 km/h (2 Bft)
27.04.2006 23:00 11,5 C 90 % 0,0 l/m NW 9,2 km/h (2 Bft)
28.04.2006 00:00 11,2 C 94 % 0,0 l/m NW 11,2 km/h (2 Bft)
28.04.2006 01:00 11,0 C 96 % 1,0 l/m NW 9,1 km/h (2 Bft)
28.04.2006 02:00 10,9 C 98 % 0,0 l/m NW 11,5 km/h (2 Bft)
28.04.2006 03:00 10,8 C 99 % 0,0 l/m N 12,6 km/h (3 Bft)
28.04.2006 04:00 10,5 C 99 % 0,0 l/m N 14,4 km/h (3 Bft)
28.04.2006 05:00 10,2 C 100 % 0,0 l/m N 12,5 km/h (3 Bft)
28.04.2006 06:00 10,0 C 100 % 0,0 l/m N-NW 12,9 km/h (3 Bft)
28.04.2006 07:00 9,8 C 99 % 0,0 l/m N 12,9 km/h (3 Bft)
28.04.2006 08:00 9,7 C 97 % 1,0 l/m N 13,9 km/h (3 Bft)
28.04.2006 09:00 9,6 C 97 % 0,0 l/m N-NW 13,2 km/h (3 Bft)
28.04.2006 10:00 9,5 C 98 % 0,0 l/m N-NW 13,7 km/h (3 Bft)
28.04.2006 11:00 9,8 C 95 % 1,0 l/m N 15,6 km/h (3 Bft)
28.04.2006 12:00 10,0 C 92 % 0,0 l/m N 16,8 km/h (3 Bft)
28.04.2006 13:00 9,7 C 92 % 0,0 l/m NW 13,3 km/h (3 Bft)
28.04.2006 14:00 9,5 C 93 % 1,0 l/m N 10,6 km/h (2 Bft)
28.04.2006 15:00 9,9 C 89 % 0,0 l/m N 14,1 km/h (3 Bft)
28.04.2006 16:00 9,5 C 90 % 0,0 l/m N 11,0 km/h (2 Bft)
28.04.2006 17:00 9,7 C 90 % 0,0 l/m N-NW 4,2 km/h (1 Bft)
28.04.2006 18:00 9,8 C 88 % 0,0 l/m N 0,0 km/h (0 Bft)
28.04.2006 19:00 9,5 C 91 % 0,0 l/m S 0,3 km/h (0 Bft)
28.04.2006 20:00 9,3 C 94 % 0,0 l/m N 0,1 km/h (0 Bft)
28.04.2006 21:00 9,1 C 96 % 0,0 l/m N 0,0 km/h (0 Bft)
28.04.2006 22:00 8,9 C 97 % 0,0 l/m N 0,0 km/h (0 Bft)
28.04.2006 23:00 8,7 C 98 % 0,0 l/m N 0,0 km/h (0 Bft)
29.04.2006 00:00 8,6 C 98 % 0,0 l/m N 0,0 km/h (0 Bft)
29.04.2006 01:00 8,4 C 98 % 0,0 l/m N 0,0 km/h (0 Bft)
29.04.2006 02:00 8,2 C 98 % 0,0 l/m W 0,1 km/h (0 Bft)
29.04.2006 03:00 7,9 C 97 % 0,0 l/m W-NW 8,7 km/h (2 Bft)
29.04.2006 04:00 7,1 C 87 % 0,0 l/m W-NW 11,7 km/h (2 Bft)
29.04.2006 05:00 6,8 C 83 % 0,0 l/m NW 10,7 km/h (2 Bft)
29.04.2006 06:00 6,4 C 80 % 0,0 l/m NW 12,3 km/h (3 Bft)
29.04.2006 07:00 5,8 C 79 % 0,0 l/m N-NW 13,5 km/h (3 Bft)
29.04.2006 08:00 5,6 C 76 % 0,0 l/m N-NW 12,9 km/h (3 Bft)
29.04.2006 09:00 5,3 C 76 % 0,0 l/m N-NW 12,0 km/h (2 Bft)
29.04.2006 10:00 5,0 C 72 % 0,0 l/m N-NW 14,0 km/h (3 Bft)
29.04.2006 11:00 5,5 C 70 % 0,0 l/m N-NW 6,9 km/h (2 Bft)
29.04.2006 12:00 5,5 C 70 % 0,0 l/m W-NW 7,4 km/h (2 Bft)
29.04.2006 13:00 5,5 C 66 % 0,0 l/m NW 11,9 km/h (2 Bft)
29.04.2006 14:00 5,9 C 61 % 0,0 l/m W 7,4 km/h (2 Bft)
29.04.2006 15:00 5,4 C 71 % 0,0 l/m S-SW 11,5 km/h (2 Bft)
29.04.2006 16:00 6,9 C 68 % 0,0 l/m S 8,8 km/h (2 Bft)
29.04.2006 17:00 6,6 C 66 % 0,0 l/m S 14,2 km/h (3 Bft)
29.04.2006 18:00 5,7 C 71 % 0,0 l/m S 17,1 km/h (3 Bft)
29.04.2006 19:00 4,9 C 78 % 0,0 l/m S-SW 15,8 km/h (3 Bft)
29.04.2006 20:00 3,9 C 82 % 0,0 l/m S-SW 12,2 km/h (2 Bft)
29.04.2006 21:00 3,1 C 88 % 0,0 l/m S 10,2 km/h (2 Bft)
29.04.2006 22:00 3,0 C 87 % 0,0 l/m W 7,3 km/h (2 Bft)
29.04.2006 23:00 2,2 C 88 % 0,0 l/m S 1,2 km/h (1 Bft)
30.04.2006 00:00 1,2 C 90 % 0,0 l/m N 0,0 km/h (0 Bft)
30.04.2006 01:00 0,6 C 91 % 0,0 l/m N 0,0 km/h (0 Bft)
30.04.2006 02:00 0,9 C 95 % 0,0 l/m S 3,1 km/h (1 Bft)
30.04.2006 03:00 0,6 C 98 % 0,0 l/m S 1,4 km/h (1 Bft)
30.04.2006 04:00 -0,3 C 99 % 0,0 l/m N 0,0 km/h (0 Bft)
30.04.2006 05:00 -0,9 C 100 % 0,0 l/m N 0,0 km/h (0 Bft)
30.04.2006 06:00 -0,7 C 100 % 0,0 l/m N 0,0 km/h (0 Bft)
30.04.2006 07:00 0,4 C 100 % 0,0 l/m N 0,0 km/h (0 Bft)
30.04.2006 08:00 1,0 C 100 % 0,0 l/m O-SO 0,5 km/h (0 Bft)
30.04.2006 09:00 3,2 C 99 % 0,0 l/m O 2,8 km/h (1 Bft)
30.04.2006 10:00 7,4 C 59 % 0,0 l/m SO 6,2 km/h (2 Bft)
30.04.2006 11:00 7,9 C 48 % 0,0 l/m W 9,0 km/h (2 Bft)
30.04.2006 12:00 8,8 C 41 % 0,0 l/m S-SW 8,4 km/h (2 Bft)
30.04.2006 13:00 9,4 C 40 % 0,0 l/m S 9,9 km/h (2 Bft)
30.04.2006 14:00 10,9 C 40 % 0,0 l/m S-SW 15,5 km/h (3 Bft)
30.04.2006 15:00 10,5 C 39 % 0,0 l/m W-SW 12,5 km/h (3 Bft)
30.04.2006 16:00 11,2 C 32 % 0,0 l/m S 11,9 km/h (2 Bft)
30.04.2006 17:00 10,5 C 32 % 0,0 l/m S-SW 10,5 km/h (2 Bft)
30.04.2006 18:00 9,7 C 35 % 0,0 l/m S-SW 9,4 km/h (2 Bft)
30.04.2006 19:00 8,9 C 40 % 0,0 l/m S-SW 4,9 km/h (1 Bft)
30.04.2006 20:00 8,3 C 43 % 0,0 l/m N 0,0 km/h (0 Bft)
30.04.2006 21:00 6,7 C 49 % 0,0 l/m N 0,0 km/h (0 Bft)
30.04.2006 22:00 5,4 C 55 % 0,0 l/m N 0,0 km/h (0 Bft)
30.04.2006 23:00 4,9 C 62 % 0,0 l/m N 0,0 km/h (0 Bft)
Min-Datum _ 30.04.06 24.04.06 - - 24.04.06
_ Min-Zeit 05:45 16:39 - - 00:00
Minimum _ -1,2 C 30 % - - 0,0 km/h (0 Bft)
Max-Datum _ 24.04.06 27.04.06 26.04.06 - 26.04.06
_ Max-Zeit 16:29 02:58 16:39 - 10:59
Maximum _ 22,3 C 100 % 1,0 l/m - 33,8 km/h
S-SW (5 Bft)
Durchschnitt _ 10,6 C 75 % #6,0 l/m NW 6,5 km/h (2 Bft)

Durchschnitt Minimum Temp.10,2 C
Durchschnitt Maximum Temp.11,0 C